Time;durP1;ratioP1;P1;durP2;ratioP2;P2;SDS_P1;SDS_P2;PMS_P1;PMS_P2;Temp;Humidity;BMP_temperature;BMP_pressure;BME280_temperature;BME280_humidity;BME280_pressure;Samples;Min_cycle;Max_cycle;Signal;HPM_P1;HPM_P2
2023/10/02 00:01:53;;;;;;;3.05;1.75;;;20.30;79.20;;;;;;5054683;28;20060;-69
2023/10/02 00:04:23;;;;;;;2.45;1.80;;;20.30;79.30;;;;;;5058707;28;20567;-68
2023/10/02 00:07:06;;;;;;;2.58;1.77;;;20.30;79.30;;;;;;5063167;28;20078;-69
2023/10/02 00:09:36;;;;;;;2.10;1.90;;;20.30;79.40;;;;;;5062040;28;20166;-69
2023/10/02 00:12:11;;;;;;;4.18;1.98;;;20.30;79.40;;;;;;5060458;28;20080;-69
2023/10/02 00:14:38;;;;;;;3.20;2.28;;;20.30;79.40;;;;;;5051679;28;20251;-67
2023/10/02 00:17:07;;;;;;;2.22;1.83;;;20.30;79.50;;;;;;5058483;28;20031;-68
2023/10/02 00:19:35;;;;;;;3.50;2.30;;;20.30;79.50;;;;;;5063275;28;20048;-67
2023/10/02 00:22:06;;;;;;;3.30;1.90;;;20.20;79.40;;;;;;5060868;28;20028;-67
2023/10/02 00:24:41;;;;;;;2.70;1.80;;;20.20;79.50;;;;;;5059159;28;20032;-67
2023/10/02 00:27:09;;;;;;;2.03;1.83;;;20.20;79.50;;;;;;5060994;28;20029;-67
2023/10/02 00:29:51;;;;;;;3.03;1.77;;;20.20;79.50;;;;;;5056086;28;20552;-69
2023/10/02 00:32:19;;;;;;;2.35;1.52;;;20.20;79.60;;;;;;5064558;28;20036;-67
2023/10/02 00:34:46;;;;;;;3.47;2.03;;;20.20;79.60;;;;;;5059666;28;20021;-67
2023/10/02 00:37:13;;;;;;;3.75;1.85;;;20.20;79.60;;;;;;5051884;28;20116;-67
2023/10/02 00:39:40;;;;;;;2.83;1.98;;;20.20;79.60;;;;;;5054520;28;20029;-67
2023/10/02 00:45:04;;;;;;;2.78;1.88;;;20.20;79.70;;;;;;5044566;28;20043;-67
2023/10/02 00:47:42;;;;;;;3.35;2.28;;;20.10;79.50;;;;;;5054046;28;20117;-72
2023/10/02 00:50:27;;;;;;;3.58;1.90;;;20.10;79.60;;;;;;5055814;28;20032;-73
2023/10/02 00:52:59;;;;;;;2.95;2.28;;;20.10;79.60;;;;;;5056063;28;20437;-71
2023/10/02 00:55:37;;;;;;;3.08;2.78;;;20.10;79.60;;;;;;5055547;28;20032;-72
2023/10/02 00:58:05;;;;;;;3.95;2.08;;;20.10;79.60;;;;;;5055194;28;20035;-72
2023/10/02 01:00:42;;;;;;;3.35;2.25;;;20.10;79.60;;;;;;5059775;28;20032;-72
2023/10/02 01:03:15;;;;;;;3.45;2.47;;;20.00;79.50;;;;;;5055660;28;20021;-74
2023/10/02 01:05:47;;;;;;;3.40;2.17;;;20.10;79.70;;;;;;5052834;28;20370;-73
2023/10/02 01:08:25;;;;;;;2.97;2.30;;;20.00;79.60;;;;;;5056048;28;20036;-74
2023/10/02 01:10:59;;;;;;;3.00;2.33;;;20.10;79.80;;;;;;5054365;28;20091;-73
2023/10/02 01:13:34;;;;;;;4.22;2.83;;;20.00;79.60;;;;;;5051345;28;20370;-71
2023/10/02 01:16:04;;;;;;;3.78;2.33;;;20.00;79.70;;;;;;5052646;28;20052;-68
2023/10/02 01:18:31;;;;;;;4.53;2.65;;;20.00;79.70;;;;;;5053718;28;20081;-68
2023/10/02 01:20:59;;;;;;;4.30;2.80;;;20.00;79.70;;;;;;5059660;28;20033;-68
2023/10/02 01:23:27;;;;;;;3.63;2.90;;;20.00;79.80;;;;;;5047561;28;20028;-68
2023/10/02 01:26:00;;;;;;;5.80;3.67;;;20.00;79.80;;;;;;5058013;28;20119;-67
2023/10/02 01:28:51;;;;;;;4.80;3.28;;;20.00;79.80;;;;;;5055208;28;20041;-67
2023/10/02 01:31:42;;;;;;;6.32;3.85;;;20.00;79.90;;;;;;5056789;28;20488;-69
2023/10/02 01:34:10;;;;;;;4.13;2.80;;;20.00;79.80;;;;;;5045526;28;20029;-69
2023/10/02 01:36:41;;;;;;;5.10;3.65;;;19.90;79.60;;;;;;5054949;28;20075;-69
2023/10/02 01:39:16;;;;;;;5.10;3.13;;;19.90;79.70;;;;;;5052443;28;20059;-69
2023/10/02 01:41:48;;;;;;;5.50;3.40;;;19.90;79.80;;;;;;5053798;28;20021;-70
2023/10/02 01:44:20;;;;;;;6.07;4.18;;;19.90;79.80;;;;;;5058950;28;20040;-72
2023/10/02 01:46:49;;;;;;;3.97;3.28;;;19.90;79.90;;;;;;5059603;28;20032;-74
2023/10/02 01:49:24;;;;;;;5.53;3.85;;;19.90;79.80;;;;;;5054474;28;20029;-72
2023/10/02 01:51:55;;;;;;;5.45;3.60;;;19.90;79.90;;;;;;5054092;28;20472;-70
2023/10/02 01:54:22;;;;;;;4.72;3.70;;;19.90;79.80;;;;;;5050859;28;20032;-72
2023/10/02 01:56:49;;;;;;;5.57;3.95;;;19.90;79.90;;;;;;5054634;28;20032;-69
2023/10/02 01:59:19;;;;;;;7.28;4.22;;;19.90;79.90;;;;;;5056542;28;20040;-72
2023/10/02 02:01:52;;;;;;;5.07;3.90;;;19.80;79.70;;;;;;5050259;28;20028;-73
2023/10/02 02:04:19;;;;;;;6.55;4.55;;;19.80;79.80;;;;;;5053530;28;20372;-69
2023/10/02 02:06:52;;;;;;;5.75;4.07;;;19.80;79.70;;;;;;5072769;28;20055;-71
2023/10/02 02:09:23;;;;;;;5.63;4.88;;;19.80;79.80;;;;;;5058827;28;20093;-69
2023/10/02 02:12:05;;;;;;;6.72;4.28;;;19.80;79.80;;;;;;5063852;28;20178;-72
2023/10/02 02:14:32;;;;;;;5.18;3.60;;;19.80;79.90;;;;;;5065122;28;20029;-69
2023/10/02 02:16:59;;;;;;;6.53;4.63;;;19.80;79.90;;;;;;5063800;28;20092;-70
2023/10/02 02:19:25;;;;;;;6.90;4.35;;;19.80;79.90;;;;;;5048512;28;20408;-75
2023/10/02 02:21:56;;;;;;;8.13;5.03;;;19.70;79.70;;;;;;5061547;28;20036;-71
2023/10/02 02:24:23;;;;;;;8.65;6.20;;;19.80;80.00;;;;;;5051340;28;20036;-71
2023/10/02 02:26:57;;;;;;;8.60;6.00;;;19.70;79.80;;;;;;5056708;28;20067;-74
2023/10/02 02:29:25;;;;;;;8.80;5.65;;;19.70;79.80;;;;;;5056050;28;20050;-70
2023/10/02 02:31:51;;;;;;;10.73;6.70;;;19.70;79.80;;;;;;5054241;28;20024;-74
2023/10/02 02:34:17;;;;;;;10.63;6.97;;;19.70;79.80;;;;;;5052418;28;20044;-73
2023/10/02 02:36:47;;;;;;;11.10;6.07;;;19.70;79.90;;;;;;5052985;28;20028;-71
2023/10/02 02:39:16;;;;;;;9.55;6.68;;;19.70;79.90;;;;;;5059258;28;20055;-72
2023/10/02 02:41:43;;;;;;;11.15;7.95;;;19.70;79.90;;;;;;5057625;28;20044;-75
2023/10/02 02:46:59;;;;;;;10.95;8.07;;;19.70;79.90;;;;;;5058643;28;20508;-69
2023/10/02 02:49:25;;;;;;;11.57;7.60;;;19.70;79.90;;;;;;5053903;28;20036;-73
2023/10/02 02:51:55;;;;;;;11.77;8.10;;;19.60;79.70;;;;;;5059581;28;20123;-73
2023/10/02 02:54:25;;;;;;;13.00;8.43;;;19.60;79.80;;;;;;5061727;28;20472;-74
2023/10/02 02:56:58;;;;;;;11.93;8.13;;;19.60;79.80;;;;;;5058228;28;20036;-69
2023/10/02 02:59:28;;;;;;;12.75;8.45;;;19.60;79.80;;;;;;5054455;28;20048;-68
2023/10/02 03:02:10;;;;;;;11.68;7.45;;;19.60;79.80;;;;;;5054419;28;20527;-68
2023/10/02 03:04:40;;;;;;;12.67;8.67;;;19.60;79.80;;;;;;5057832;28;20029;-73
2023/10/02 03:07:18;;;;;;;12.13;7.65;;;19.50;79.70;;;;;;5061523;28;20472;-76
2023/10/02 03:09:45;;;;;;;10.45;7.53;;;19.60;79.90;;;;;;5051906;28;20250;-78
2023/10/02 03:12:10;;;;;;;14.43;8.45;;;19.60;79.80;;;;;;5060137;28;20039;-75
2023/10/02 03:14:36;;;;;;;9.80;7.20;;;19.50;79.70;;;;;;5054919;28;20396;-78
2023/10/02 03:17:28;;;;;;;10.65;6.32;;;19.50;79.70;;;;;;5047659;28;20036;-70
2023/10/02 03:19:49;;;;;;;11.70;7.88;;;19.50;79.70;;;;;;5054482;28;20052;-73
2023/10/02 03:22:17;;;;;;;9.10;6.80;;;19.50;79.80;;;;;;5060026;28;20099;-73
2023/10/02 03:24:45;;;;;;;12.10;7.65;;;19.40;79.60;;;;;;5058821;28;20095;-74
2023/10/02 03:27:14;;;;;;;12.98;6.32;;;19.50;79.80;;;;;;5060722;28;20032;-72
2023/10/02 03:29:42;;;;;;;11.50;7.10;;;19.50;79.80;;;;;;5062485;28;20468;-76
2023/10/02 03:32:11;;;;;;;10.98;6.90;;;19.50;79.90;;;;;;5058132;28;20563;-69
2023/10/02 03:34:38;;;;;;;12.23;6.35;;;19.40;79.70;;;;;;5054575;28;20028;-72
2023/10/02 03:42:31;;;;;;;12.18;6.50;;;19.40;79.80;;;;;;5052942;28;20089;-69
2023/10/02 03:44:58;;;;;;;;;;;19.40;79.80;;;;;;5062074;28;20075;-73
2023/10/02 03:47:35;;;;;;;9.75;5.90;;;19.40;79.70;;;;;;5059489;28;19912;-72
2023/10/02 03:50:02;;;;;;;12.60;7.38;;;19.40;79.70;;;;;;5048477;28;20037;-74
2023/10/02 03:52:30;;;;;;;9.05;6.80;;;19.40;80.30;;;;;;5060760;28;20105;-75
2023/10/02 03:54:57;;;;;;;8.02;5.38;;;19.40;79.80;;;;;;5056936;28;20360;-76
2023/10/02 04:00:16;;;;;;;9.85;7.00;;;19.40;79.90;;;;;;5055930;28;20128;-74
2023/10/02 04:02:45;;;;;;;9.40;6.68;;;19.40;79.90;;;;;;5055820;28;20078;-72
2023/10/02 04:05:30;;;;;;;9.10;6.18;;;19.40;79.90;;;;;;5046404;28;20094;-75
2023/10/02 04:10:57;;;;;;;10.95;6.22;;;19.30;79.80;;;;;;5053388;28;20260;-75
2023/10/02 04:13:25;;;;;;;12.63;8.18;;;19.30;79.80;;;;;;5064266;28;20549;-72
2023/10/02 04:15:53;;;;;;;11.20;7.18;;;19.30;79.90;;;;;;5054413;28;20060;-73
2023/10/02 04:21:19;;;;;;;9.25;5.93;;;19.30;79.90;;;;;;5055167;28;20033;-75
2023/10/02 04:23:45;;;;;;;9.25;6.32;;;19.30;79.90;;;;;;5059487;28;20035;-68
2023/10/02 04:26:19;;;;;;;9.02;6.80;;;19.30;79.90;;;;;;5056552;28;20112;-76
2023/10/02 04:28:55;;;;;;;9.27;7.20;;;19.30;80.00;;;;;;5064457;28;20056;-69
2023/10/02 04:31:23;;;;;;;10.50;5.93;;;19.30;80.00;;;;;;5063569;28;20032;-70
2023/10/02 04:33:57;;;;;;;11.02;6.10;;;19.20;79.80;;;;;;5060017;28;20028;-69
2023/10/02 04:36:34;;;;;;;9.82;6.38;;;19.20;79.90;;;;;;5057683;28;20028;-70
2023/10/02 04:39:04;;;;;;;11.10;7.00;;;19.20;79.90;;;;;;5051737;28;20056;-69
2023/10/02 04:41:37;;;;;;;9.90;6.20;;;19.20;80.40;;;;;;5061299;28;20507;-71
2023/10/02 04:44:04;;;;;;;11.25;7.07;;;19.20;79.90;;;;;;5063126;28;20304;-70
2023/10/02 04:46:34;;;;;;;14.35;7.05;;;19.20;80.00;;;;;;5053599;28;20025;-71
2023/10/02 04:49:00;;;;;;;8.75;6.03;;;19.20;80.00;;;;;;5052207;28;20037;-70
2023/10/02 04:51:30;;;;;;;11.23;7.00;;;19.20;80.00;;;;;;5054712;28;20065;-68
2023/10/02 04:53:57;;;;;;;9.98;6.72;;;19.20;80.00;;;;;;5059904;28;20028;-73
2023/10/02 04:56:25;;;;;;;10.43;6.47;;;19.20;80.00;;;;;;5058215;28;20040;-71
2023/10/02 04:58:51;;;;;;;8.90;6.22;;;19.10;79.90;;;;;;5067837;28;20059;-71
2023/10/02 05:01:29;;;;;;;9.30;5.65;;;19.10;79.90;;;;;;5060051;28;20047;-72
2023/10/02 05:03:58;;;;;;;9.65;6.93;;;19.10;80.00;;;;;;5062385;28;20032;-71
2023/10/02 05:11:55;;;;;;;10.88;6.13;;;19.10;80.00;;;;;;5058144;28;20024;-67
2023/10/02 05:14:26;;;;;;;9.60;6.13;;;19.10;80.00;;;;;;5063374;28;20463;-67
2023/10/02 05:17:17;;;;;;;9.50;6.05;;;19.00;79.90;;;;;;5053445;28;20060;-73
2023/10/02 05:20:01;;;;;;;11.10;7.43;;;19.00;80.00;;;;;;5054198;28;20093;-70
2023/10/02 05:22:30;;;;;;;8.63;5.43;;;19.00;79.90;;;;;;5054756;28;20060;-73
2023/10/02 05:24:59;;;;;;;11.55;6.40;;;19.00;79.90;;;;;;5064513;28;20028;-69
2023/10/02 05:27:33;;;;;;;8.40;6.15;;;19.00;79.90;;;;;;5064563;28;20093;-74
2023/10/02 05:30:00;;;;;;;8.80;6.40;;;18.90;79.80;;;;;;5063901;28;20520;-67
2023/10/02 05:32:35;;;;;;;9.23;6.43;;;18.90;79.80;;;;;;5054438;28;20032;-69
2023/10/02 05:35:16;;;;;;;11.98;6.32;;;18.90;79.80;;;;;;5058060;28;20541;-73
2023/10/02 05:37:46;;;;;;;10.50;7.15;;;18.90;79.90;;;;;;5056764;28;20377;-75
2023/10/02 05:48:14;;;;;;;10.77;6.90;;;18.70;79.70;;;;;;5058792;28;20026;-70
2023/10/02 05:50:47;;;;;;;10.52;6.32;;;18.60;79.60;;;;;;5053699;28;20553;-71
2023/10/02 05:53:17;;;;;;;9.93;6.13;;;18.60;79.70;;;;;;5057243;28;20032;-68
2023/10/02 05:58:31;;;;;;;12.43;5.82;;;18.50;79.70;;;;;;5055837;28;20049;-69
2023/10/02 06:01:16;;;;;;;9.20;6.40;;;18.50;80.00;;;;;;5062976;28;20024;-71
2023/10/02 06:03:42;;;;;;;9.32;6.43;;;18.50;80.10;;;;;;5055828;28;20111;-68
2023/10/02 06:06:21;;;;;;;7.88;5.28;;;18.50;80.10;;;;;;5057282;28;20524;-68
2023/10/02 06:08:51;;;;;;;8.93;6.32;;;18.40;80.00;;;;;;5061349;28;20028;-69
2023/10/02 06:11:28;;;;;;;7.28;5.20;;;18.40;80.10;;;;;;5053161;28;20108;-71
2023/10/02 06:14:09;;;;;;;9.18;5.55;;;18.40;80.10;;;;;;5058470;28;20032;-68
2023/10/02 06:16:40;;;;;;;6.88;5.25;;;18.30;80.00;;;;;;5056391;28;20110;-70
2023/10/02 06:19:13;;;;;;;6.97;5.03;;;18.30;80.00;;;;;;5056267;28;20037;-69
2023/10/02 06:24:27;;;;;;;8.45;5.30;;;18.30;80.10;;;;;;5057189;28;20068;-71
2023/10/02 06:26:57;;;;;;;6.50;4.70;;;18.30;80.10;;;;;;5055351;28;20029;-70
2023/10/02 06:29:29;;;;;;;9.52;5.57;;;18.20;79.90;;;;;;5059444;28;20040;-70
2023/10/02 06:32:05;;;;;;;8.98;5.72;;;18.30;80.10;;;;;;5039807;28;20109;-68
2023/10/02 06:34:38;;;;;;;7.93;5.13;;;18.20;79.90;;;;;;5057865;28;20025;-70
2023/10/02 06:37:19;;;;;;;9.23;5.75;;;18.20;79.90;;;;;;5049731;28;20091;-68
2023/10/02 06:40:04;;;;;;;8.35;5.45;;;18.20;79.90;;;;;;5051929;28;20040;-69
2023/10/02 06:42:31;;;;;;;8.43;5.13;;;18.20;79.90;;;;;;5048016;28;20658;-70
2023/10/02 06:45:01;;;;;;;9.70;5.53;;;18.20;79.80;;;;;;5059051;28;20086;-73
2023/10/02 06:47:30;;;;;;;8.80;5.68;;;18.20;79.90;;;;;;5053458;28;20471;-70
2023/10/02 06:50:03;;;;;;;8.50;5.13;;;18.20;80.00;;;;;;5060142;28;20375;-72
2023/10/02 06:52:32;;;;;;;6.85;5.35;;;18.20;80.00;;;;;;5049403;28;20080;-70
2023/10/02 06:55:01;;;;;;;8.38;5.75;;;18.10;79.80;;;;;;5058123;28;20506;-73
2023/10/02 06:57:28;;;;;;;9.95;6.20;;;18.20;80.00;;;;;;5051729;28;21502;-73
2023/10/02 06:59:54;;;;;;;10.57;6.05;;;18.20;80.00;;;;;;5057886;28;20061;-73
2023/10/02 07:02:32;;;;;;;8.80;5.82;;;18.20;80.00;;;;;;5058335;28;20040;-70
2023/10/02 07:04:58;;;;;;;11.38;5.90;;;18.20;80.00;;;;;;5050748;28;20192;-73
2023/10/02 07:07:29;;;;;;;8.63;6.20;;;18.20;80.00;;;;;;5064793;28;20112;-74
2023/10/02 07:10:07;;;;;;;10.05;6.07;;;18.30;80.10;;;;;;5053428;28;20079;-72
2023/10/02 07:12:40;;;;;;;9.45;5.53;;;18.30;80.10;;;;;;5056090;28;20423;-74
2023/10/02 07:15:10;;;;;;;8.32;5.50;;;18.30;80.00;;;;;;5048457;28;20036;-73
2023/10/02 07:17:49;;;;;;;8.85;5.30;;;18.30;80.00;;;;;;5050813;28;20036;-73
2023/10/02 07:20:16;;;;;;;7.75;6.13;;;18.30;80.00;;;;;;5056663;28;20047;-71
2023/10/02 07:22:43;;;;;;;9.65;6.07;;;18.40;80.10;;;;;;5056120;28;20437;-72
2023/10/02 07:25:09;;;;;;;10.05;5.90;;;18.40;80.00;;;;;;5060771;28;20040;-71
2023/10/02 07:27:37;;;;;;;9.75;7.13;;;18.40;80.00;;;;;;5056786;28;20028;-72
2023/10/02 07:30:04;;;;;;;10.88;6.57;;;18.40;79.90;;;;;;5060033;28;20024;-70
2023/10/02 07:32:34;;;;;;;10.60;6.13;;;18.40;79.90;;;;;;5057251;28;20131;-73
2023/10/02 07:35:09;;;;;;;8.35;6.70;;;18.50;80.00;;;;;;5055496;28;20029;-71
2023/10/02 07:37:38;;;;;;;12.45;6.63;;;18.50;80.00;;;;;;5055173;28;20036;-74
2023/10/02 07:40:06;;;;;;;10.20;6.38;;;18.50;79.90;;;;;;5065206;28;20041;-73
2023/10/02 07:42:33;;;;;;;9.60;6.35;;;18.50;79.90;;;;;;5060420;28;20137;-72
2023/10/02 07:45:24;;;;;;;10.15;6.40;;;18.60;80.00;;;;;;5054732;28;21887;-75
2023/10/02 07:48:10;;;;;;;11.23;6.82;;;18.60;80.00;;;;;;5061109;28;20109;-73
2023/10/02 07:50:44;;;;;;;8.77;6.07;;;18.60;80.00;;;;;;5050021;28;20217;-69
2023/10/02 07:53:12;;;;;;;9.63;6.28;;;18.60;79.90;;;;;;5061097;28;20060;-70
2023/10/02 07:55:43;;;;;;;10.68;6.20;;;18.70;80.00;;;;;;5057133;28;20033;-67
2023/10/02 07:58:13;;;;;;;10.77;6.13;;;18.80;80.20;;;;;;5056089;28;20047;-69
2023/10/02 08:00:42;;;;;;;10.57;6.22;;;18.80;80.10;;;;;;5059116;28;20105;-68
2023/10/02 08:06:20;;;;;;;10.25;6.25;;;18.90;80.10;;;;;;5056837;28;20541;-73
2023/10/02 08:08:54;;;;;;;8.52;6.50;;;18.90;80.00;;;;;;5051474;28;20029;-69
2023/10/02 08:11:24;;;;;;;10.43;6.03;;;19.00;80.10;;;;;;5056313;28;20095;-73
2023/10/02 08:13:52;;;;;;;7.93;6.30;;;19.00;80.00;;;;;;5060722;28;20386;-72
2023/10/02 08:16:22;;;;;;;9.63;5.60;;;19.10;80.10;;;;;;5053136;28;20036;-72
2023/10/02 08:18:58;;;;;;;9.77;6.13;;;19.10;80.00;;;;;;5056488;28;20037;-73
2023/10/02 08:21:36;;;;;;;8.82;6.93;;;19.20;80.10;;;;;;5053546;28;20028;-72
2023/10/02 08:24:06;;;;;;;10.07;6.53;;;19.20;80.00;;;;;;5054566;28;20116;-71
2023/10/02 08:26:40;;;;;;;10.10;6.57;;;19.20;79.90;;;;;;5060500;28;20026;-71
2023/10/02 08:29:10;;;;;;;9.32;6.97;;;19.30;80.00;;;;;;5061709;28;20091;-72
2023/10/02 08:31:49;;;;;;;12.85;6.70;;;19.30;79.90;;;;;;5060777;28;20028;-72
2023/10/02 08:34:25;;;;;;;11.43;6.55;;;19.30;79.90;;;;;;5059561;28;20124;-70
2023/10/02 08:37:05;;;;;;;10.45;6.72;;;19.40;80.00;;;;;;5055770;28;20413;-70
2023/10/02 08:39:34;;;;;;;10.55;6.82;;;19.50;80.10;;;;;;5053072;28;20492;-71
2023/10/02 08:42:10;;;;;;;13.05;8.10;;;19.60;80.10;;;;;;5065268;28;20028;-68
2023/10/02 08:44:41;;;;;;;11.55;7.85;;;19.60;80.00;;;;;;5063232;28;20112;-71
2023/10/02 08:47:12;;;;;;;13.68;7.60;;;19.70;79.90;;;;;;5055818;28;20020;-68
2023/10/02 08:49:41;;;;;;;15.77;7.38;;;19.80;79.90;;;;;;5059200;28;20021;-74
2023/10/02 08:52:08;;;;;;;11.40;7.38;;;19.80;79.70;;;;;;5065882;28;20105;-72
2023/10/02 08:54:34;;;;;;;13.45;7.93;;;19.90;79.70;;;;;;5061647;28;20048;-71
2023/10/02 08:57:12;;;;;;;16.40;8.27;;;20.00;79.60;;;;;;5056229;28;20480;-72
2023/10/02 08:59:38;;;;;;;10.82;7.43;;;20.10;79.60;;;;;;5055403;28;20206;-67
2023/10/02 09:02:11;;;;;;;13.68;8.73;;;20.10;79.40;;;;;;5057083;28;20024;-72
2023/10/02 09:04:37;;;;;;;;;;;20.20;79.40;;;;;;5060956;28;20131;-70
2023/10/02 09:07:14;;;;;;;12.65;8.20;;;20.30;79.30;;;;;;5056598;28;19965;-67
2023/10/02 09:09:54;;;;;;;12.32;7.18;;;20.30;79.20;;;;;;5060347;28;20059;-68
2023/10/02 09:12:21;;;;;;;11.25;8.13;;;20.30;78.90;;;;;;5057403;28;20127;-70
2023/10/02 09:14:47;;;;;;;12.57;8.57;;;20.40;78.90;;;;;;5060778;28;20028;-72
2023/10/02 09:17:16;;;;;;;16.35;8.07;;;20.40;78.80;;;;;;5052807;28;20278;-68
2023/10/02 09:20:02;;;;;;;13.40;8.50;;;20.50;78.80;;;;;;5059404;28;20037;-69
2023/10/02 09:22:29;;;;;;;16.27;8.77;;;20.50;78.60;;;;;;5060997;28;20199;-70
2023/10/02 09:24:59;;;;;;;17.08;10.45;;;20.60;78.60;;;;;;5050829;28;20024;-68
2023/10/02 09:27:30;;;;;;;15.00;9.55;;;20.60;78.50;;;;;;5051161;28;20549;-69
2023/10/02 09:33:03;;;;;;;14.90;9.30;;;20.80;78.50;;;;;;5057919;28;20040;-73
2023/10/02 09:35:32;;;;;;;14.43;8.40;;;20.90;78.40;;;;;;5058254;28;20036;-72
2023/10/02 09:38:03;;;;;;;15.77;9.23;;;21.10;78.40;;;;;;5060298;28;20120;-69
2023/10/02 09:40:53;;;;;;;12.93;8.38;;;21.30;78.80;;;;;;5057228;28;20188;-69
2023/10/02 09:43:23;;;;;;;11.40;8.07;;;21.40;77.80;;;;;;5059020;28;20024;-67
2023/10/02 09:45:58;;;;;;;13.85;8.30;;;21.60;77.70;;;;;;5062603;28;20279;-69
2023/10/02 09:48:47;;;;;;;13.90;8.32;;;21.70;77.50;;;;;;5060636;28;20031;-68
2023/10/02 09:51:29;;;;;;;10.70;7.35;;;21.70;77.30;;;;;;5058189;28;20029;-71
2023/10/02 09:54:21;;;;;;;9.63;7.20;;;21.80;77.30;;;;;;5061608;28;20058;-71
2023/10/02 09:57:05;;;;;;;11.32;6.63;;;21.70;77.20;;;;;;5048357;28;20037;-72
2023/10/02 09:59:48;;;;;;;11.88;6.05;;;21.70;77.30;;;;;;5057553;28;20660;-68
2023/10/02 10:07:46;;;;;;;10.45;6.75;;;21.70;77.40;;;;;;5054470;28;20398;-68
2023/10/02 10:10:50;;;;;;;9.75;6.00;;;21.80;77.50;;;;;;5053006;28;20130;-70
2023/10/02 10:13:32;;;;;;;9.95;6.38;;;21.80;77.50;;;;;;5060577;28;20872;-71
2023/10/02 10:16:19;;;;;;;9.85;6.95;;;21.90;77.50;;;;;;5061478;28;20455;-73
2023/10/02 10:21:56;;;;;;;11.63;6.50;;;22.10;77.40;;;;;;5064739;28;20509;-74
2023/10/02 10:24:58;;;;;;;11.77;7.30;;;22.20;77.30;;;;;;5077731;28;20044;-68
2023/10/02 10:28:14;;;;;;;13.02;6.53;;;22.20;77.10;;;;;;5078806;28;20066;-70
2023/10/02 10:30:46;;;;;;;8.32;6.35;;;22.30;77.10;;;;;;5050530;28;20068;-72
2023/10/02 10:35:48;;;;;;;11.00;6.00;;;22.50;77.10;;;;;;5059460;28;20024;-73
2023/10/02 10:40:53;;;;;;;12.25;7.63;;;22.80;76.80;;;;;;5055111;28;20068;-74
2023/10/02 10:43:21;;;;;;;12.48;6.72;;;22.90;76.70;;;;;;5055510;28;20075;-72
2023/10/02 10:45:51;;;;;;;10.27;6.65;;;23.00;76.40;;;;;;5060619;28;20036;-72
2023/10/02 10:48:21;;;;;;;10.38;6.65;;;23.10;76.30;;;;;;5058513;28;20033;-72
2023/10/02 10:51:06;;;;;;;10.10;6.97;;;23.10;76.00;;;;;;5059989;28;20024;-73
2023/10/02 10:53:33;;;;;;;11.57;7.53;;;23.00;75.80;;;;;;5060656;28;20048;-71
2023/10/02 10:56:16;;;;;;;11.90;6.85;;;23.00;75.70;;;;;;5054309;28;20036;-70
2023/10/02 10:58:44;;;;;;;14.23;8.18;;;23.10;75.80;;;;;;5065362;28;20097;-74
2023/10/02 11:01:16;;;;;;;11.02;7.47;;;23.10;75.60;;;;;;5056825;28;20021;-72
2023/10/02 11:03:54;;;;;;;10.90;7.53;;;23.20;75.50;;;;;;5059841;28;20028;-72
2023/10/02 11:06:24;;;;;;;10.07;6.97;;;23.20;75.40;;;;;;5059065;28;20047;-73
2023/10/02 11:09:12;;;;;;;11.95;6.30;;;23.20;75.30;;;;;;5060259;28;20032;-69
2023/10/02 11:11:51;;;;;;;;;;;23.20;75.10;;;;;;5052149;28;20025;-73
2023/10/02 11:14:21;;;;;;;11.20;7.15;;;23.10;75.20;;;;;;5053667;28;19912;-67
2023/10/02 11:16:52;;;;;;;11.45;7.53;;;23.00;75.10;;;;;;5050915;28;20043;-68
2023/10/02 11:22:01;;;;;;;10.20;7.93;;;22.90;75.20;;;;;;5050151;28;20029;-69
2023/10/02 11:24:27;;;;;;;10.77;7.28;;;22.90;75.20;;;;;;5061412;28;20875;-70
2023/10/02 11:27:04;;;;;;;14.15;8.32;;;22.90;75.30;;;;;;5058210;28;20120;-71
2023/10/02 11:29:40;;;;;;;10.68;7.65;;;22.90;75.40;;;;;;5059520;28;20025;-72
2023/10/02 11:32:19;;;;;;;11.10;7.43;;;22.90;75.40;;;;;;5056300;28;20032;-72
2023/10/02 11:35:03;;;;;;;16.55;7.72;;;22.90;75.40;;;;;;5062669;28;20029;-69
2023/10/02 11:37:29;;;;;;;12.90;7.43;;;22.90;75.40;;;;;;5052684;28;20025;-71
2023/10/02 11:39:56;;;;;;;10.30;7.30;;;22.90;75.40;;;;;;5060273;28;20033;-72
2023/10/02 11:42:23;;;;;;;12.73;7.55;;;22.80;75.30;;;;;;5056590;28;20036;-69
2023/10/02 11:44:49;;;;;;;13.02;8.60;;;22.90;75.50;;;;;;5062378;28;20094;-70
2023/10/02 11:47:16;;;;;;;14.63;8.10;;;22.90;75.40;;;;;;5055914;28;20033;-70
2023/10/02 11:49:42;;;;;;;11.43;8.02;;;23.00;75.40;;;;;;5056214;28;20033;-73
2023/10/02 11:52:09;;;;;;;12.20;8.40;;;23.00;75.20;;;;;;5053496;28;20032;-68
2023/10/02 11:54:39;;;;;;;11.18;7.93;;;23.10;75.20;;;;;;5059894;28;20381;-70
2023/10/02 11:57:09;;;;;;;12.15;8.10;;;23.20;75.10;;;;;;5048135;28;20024;-70
2023/10/02 11:59:37;;;;;;;13.60;9.45;;;23.20;74.80;;;;;;5058283;28;20528;-72
2023/10/02 12:02:04;;;;;;;12.80;7.97;;;23.30;74.90;;;;;;5063763;28;20020;-72
2023/10/02 12:04:31;;;;;;;13.00;8.75;;;23.30;74.80;;;;;;5061912;28;20450;-71
2023/10/02 12:06:58;;;;;;;24.17;10.02;;;23.30;74.70;;;;;;5070436;28;20515;-73
2023/10/02 12:09:25;;;;;;;11.88;8.27;;;23.30;74.70;;;;;;5062698;28;20035;-68
2023/10/02 12:11:51;;;;;;;14.02;9.18;;;23.30;75.20;;;;;;5061581;28;20074;-73
2023/10/02 12:14:18;;;;;;;14.88;8.70;;;23.20;74.60;;;;;;5055612;28;20036;-69
2023/10/02 12:16:44;;;;;;;9.75;7.40;;;23.20;74.80;;;;;;5059539;28;20033;-68
2023/10/02 12:19:10;;;;;;;13.70;10.38;;;23.10;74.80;;;;;;5063862;28;20048;-68
2023/10/02 12:21:37;;;;;;;16.42;9.15;;;23.10;74.90;;;;;;5059833;28;20965;-73
2023/10/02 12:24:07;;;;;;;20.13;11.60;;;23.10;74.90;;;;;;5058127;28;20208;-71
2023/10/02 12:26:33;;;;;;;14.88;11.57;;;23.10;74.80;;;;;;5056034;28;20042;-70
2023/10/02 12:29:02;;;;;;;17.55;10.60;;;23.10;74.70;;;;;;5065959;28;20087;-72
2023/10/02 12:31:30;;;;;;;18.35;9.63;;;23.10;74.60;;;;;;5051061;28;20052;-73
2023/10/02 12:33:56;;;;;;;15.48;10.23;;;23.10;74.60;;;;;;5061969;28;20024;-68
2023/10/02 12:36:23;;;;;;;16.23;10.10;;;23.10;74.70;;;;;;5055498;28;20041;-67
2023/10/02 12:38:50;;;;;;;13.35;10.48;;;23.00;74.60;;;;;;5064611;28;20036;-68
2023/10/02 12:41:18;;;;;;;13.32;10.82;;;23.00;74.80;;;;;;5062406;28;20405;-67
2023/10/02 12:43:46;;;;;;;13.30;9.98;;;23.00;75.00;;;;;;5058128;28;20034;-70
2023/10/02 12:46:15;;;;;;;10.38;8.60;;;23.00;75.10;;;;;;5062011;28;20071;-70
2023/10/02 12:48:47;;;;;;;11.90;8.48;;;23.10;75.70;;;;;;5056626;28;20484;-68
2023/10/02 12:51:17;;;;;;;13.23;8.60;;;23.20;75.30;;;;;;5054830;28;20515;-69
2023/10/02 12:53:43;;;;;;;13.65;8.45;;;23.20;75.30;;;;;;5055698;28;20123;-70
2023/10/02 12:56:18;;;;;;;11.70;8.85;;;23.20;75.30;;;;;;5060651;28;20119;-68
2023/10/02 12:58:48;;;;;;;15.20;9.70;;;23.20;75.30;;;;;;5054750;28;20044;-69
2023/10/02 13:01:19;;;;;;;10.90;8.48;;;23.30;75.30;;;;;;5065183;28;20076;-67
2023/10/02 13:03:45;;;;;;;11.40;8.23;;;23.30;75.20;;;;;;5064248;28;20063;-70
2023/10/02 13:06:13;;;;;;;13.27;10.07;;;23.30;75.20;;;;;;5057551;28;20029;-69
2023/10/02 13:08:45;;;;;;;11.90;8.88;;;23.40;75.40;;;;;;5060367;28;20202;-70
2023/10/02 13:11:21;;;;;;;;;;;23.40;75.30;;;;;;5059076;28;20031;-69
2023/10/02 13:13:53;;;;;;;13.82;8.23;;;23.40;75.20;;;;;;5058550;28;19912;-67
2023/10/02 13:16:20;;;;;;;9.02;6.97;;;23.50;75.30;;;;;;5055976;28;20082;-68
2023/10/02 13:18:46;;;;;;;10.32;7.18;;;23.60;75.30;;;;;;5060661;28;20454;-68
2023/10/02 13:21:18;;;;;;;12.32;7.80;;;23.70;75.40;;;;;;5057682;28;20029;-70
2023/10/02 13:23:48;;;;;;;10.13;7.07;;;23.80;75.10;;;;;;5056696;28;20427;-68
2023/10/02 13:26:21;;;;;;;9.85;6.85;;;23.80;74.90;;;;;;5054389;28;20032;-70
2023/10/02 13:28:56;;;;;;;11.88;7.03;;;23.80;74.80;;;;;;5059831;28;20059;-73
2023/10/02 13:31:26;;;;;;;8.40;6.65;;;23.70;74.80;;;;;;5055837;28;20079;-73
2023/10/02 13:33:53;;;;;;;9.30;6.53;;;23.70;74.90;;;;;;5059989;28;20432;-73
2023/10/02 13:36:22;;;;;;;9.57;6.53;;;23.60;74.90;;;;;;5055784;28;20532;-69
2023/10/02 13:38:53;;;;;;;7.85;6.35;;;23.50;74.90;;;;;;5058485;28;20048;-70
2023/10/02 13:41:19;;;;;;;6.65;5.57;;;23.40;75.00;;;;;;5061689;28;20032;-73
2023/10/02 13:43:48;;;;;;;8.13;5.25;;;23.30;75.00;;;;;;5055505;28;20491;-71
2023/10/02 13:46:20;;;;;;;9.18;6.28;;;23.20;75.10;;;;;;5034964;28;20411;-68
2023/10/02 13:48:47;;;;;;;6.68;5.97;;;23.10;75.30;;;;;;5053516;28;20043;-72
2023/10/02 13:51:16;;;;;;;7.75;6.10;;;23.10;75.40;;;;;;5057855;28;20040;-74
2023/10/02 13:53:43;;;;;;;8.20;6.10;;;23.00;75.50;;;;;;5055966;28;20081;-70
2023/10/02 13:56:25;;;;;;;9.30;5.38;;;23.00;75.60;;;;;;5053846;28;20362;-70
2023/10/02 13:58:53;;;;;;;8.07;4.95;;;22.90;75.60;;;;;;5059732;28;20048;-67
2023/10/02 14:01:26;;;;;;;8.85;5.85;;;22.90;75.80;;;;;;5049349;28;20028;-72
2023/10/02 14:03:56;;;;;;;7.38;5.20;;;22.80;75.70;;;;;;5055312;28;20800;-73
2023/10/02 14:06:28;;;;;;;7.85;5.45;;;22.70;75.80;;;;;;5077608;28;20048;-67
2023/10/02 14:08:55;;;;;;;7.93;5.53;;;22.70;76.00;;;;;;5060009;28;20048;-72